sensor_id;sensor_type;location;lat;lon;timestamp;pressure;altitude;pressure_sealevel;temperature;humidity
76108;BME280;64834;52.516;10.528;2023-04-24T00:02:17;99551.59;;;13.36;70.91
76108;BME280;64834;52.516;10.528;2023-04-24T00:04:43;99551.72;;;13.41;70.88
76108;BME280;64834;52.516;10.528;2023-04-24T00:07:10;99547.94;;;13.31;71.62
76108;BME280;64834;52.516;10.528;2023-04-24T00:09:36;99532.44;;;13.40;70.40
76108;BME280;64834;52.516;10.528;2023-04-24T00:12:01;99519.25;;;13.39;70.59
76108;BME280;64834;52.516;10.528;2023-04-24T00:14:29;99533.19;;;13.36;71.08
76108;BME280;64834;52.516;10.528;2023-04-24T00:16:55;99527.94;;;13.36;70.97
76108;BME280;64834;52.516;10.528;2023-04-24T00:19:20;99521.72;;;13.33;71.07
76108;BME280;64834;52.516;10.528;2023-04-24T00:21:46;99527.91;;;13.35;71.67
76108;BME280;64834;52.516;10.528;2023-04-24T00:24:11;99527.00;;;13.34;71.23
76108;BME280;64834;52.516;10.528;2023-04-24T00:26:37;99528.81;;;13.37;71.43
76108;BME280;64834;52.516;10.528;2023-04-24T00:29:02;99519.97;;;13.33;71.60
76108;BME280;64834;52.516;10.528;2023-04-24T00:31:27;99530.34;;;13.27;72.06
76108;BME280;64834;52.516;10.528;2023-04-24T00:33:53;99523.25;;;13.25;72.30
76108;BME280;64834;52.516;10.528;2023-04-24T00:36:18;99525.84;;;13.23;72.03
76108;BME280;64834;52.516;10.528;2023-04-24T00:38:45;99517.75;;;13.17;72.02
76108;BME280;64834;52.516;10.528;2023-04-24T00:41:11;99517.53;;;13.08;72.77
76108;BME280;64834;52.516;10.528;2023-04-24T00:43:36;99524.59;;;13.10;72.62
76108;BME280;64834;52.516;10.528;2023-04-24T00:46:01;99524.66;;;13.13;71.92
76108;BME280;64834;52.516;10.528;2023-04-24T00:48:27;99524.31;;;13.00;72.82
76108;BME280;64834;52.516;10.528;2023-04-24T00:50:52;99509.06;;;12.86;73.66
76108;BME280;64834;52.516;10.528;2023-04-24T00:53:18;99509.78;;;12.81;73.41
76108;BME280;64834;52.516;10.528;2023-04-24T00:55:44;99521.09;;;12.78;73.77
76108;BME280;64834;52.516;10.528;2023-04-24T00:58:09;99516.91;;;12.85;73.28
76108;BME280;64834;52.516;10.528;2023-04-24T01:00:34;99518.47;;;12.78;73.65
76108;BME280;64834;52.516;10.528;2023-04-24T01:03:01;99530.53;;;12.72;73.47
76108;BME280;64834;52.516;10.528;2023-04-24T01:05:29;99526.81;;;12.63;74.03
76108;BME280;64834;52.516;10.528;2023-04-24T01:07:55;99519.75;;;12.62;74.04
76108;BME280;64834;52.516;10.528;2023-04-24T01:10:20;99523.78;;;12.50;74.40
76108;BME280;64834;52.516;10.528;2023-04-24T01:12:46;99523.84;;;12.51;74.81
76108;BME280;64834;52.516;10.528;2023-04-24T01:15:11;99522.81;;;12.46;74.34
76108;BME280;64834;52.516;10.528;2023-04-24T01:17:36;99524.41;;;12.41;74.86
76108;BME280;64834;52.516;10.528;2023-04-24T01:20:04;99528.56;;;12.33;75.64
76108;BME280;64834;52.516;10.528;2023-04-24T01:22:30;99524.13;;;12.32;75.51
76108;BME280;64834;52.516;10.528;2023-04-24T01:24:56;99521.38;;;12.27;75.47
76108;BME280;64834;52.516;10.528;2023-04-24T01:27:21;99527.19;;;12.17;76.16
76108;BME280;64834;52.516;10.528;2023-04-24T01:29:47;99522.53;;;12.07;76.29
76108;BME280;64834;52.516;10.528;2023-04-24T01:32:14;99520.72;;;12.06;76.36
76108;BME280;64834;52.516;10.528;2023-04-24T01:34:40;99518.28;;;12.12;76.19
76108;BME280;64834;52.516;10.528;2023-04-24T01:37:06;99509.44;;;12.08;76.49
76108;BME280;64834;52.516;10.528;2023-04-24T01:39:31;99509.16;;;11.99;76.60
76108;BME280;64834;52.516;10.528;2023-04-24T01:41:58;99510.81;;;11.96;76.83
76108;BME280;64834;52.516;10.528;2023-04-24T01:44:25;99502.59;;;11.85;77.69
76108;BME280;64834;52.516;10.528;2023-04-24T01:46:51;99501.69;;;11.83;77.75
76108;BME280;64834;52.516;10.528;2023-04-24T01:49:18;99505.00;;;11.79;77.67
76108;BME280;64834;52.516;10.528;2023-04-24T01:51:43;99515.44;;;11.77;77.66
76108;BME280;64834;52.516;10.528;2023-04-24T01:54:08;99514.41;;;11.72;77.90
76108;BME280;64834;52.516;10.528;2023-04-24T01:56:34;99519.59;;;11.71;78.16
76108;BME280;64834;52.516;10.528;2023-04-24T01:59:03;99522.03;;;11.65;78.12
76108;BME280;64834;52.516;10.528;2023-04-24T02:01:34;99514.94;;;11.62;78.56
76108;BME280;64834;52.516;10.528;2023-04-24T02:04:00;99508.69;;;11.57;78.56
76108;BME280;64834;52.516;10.528;2023-04-24T02:06:26;99513.19;;;11.62;78.44
76108;BME280;64834;52.516;10.528;2023-04-24T02:08:51;99507.03;;;11.60;78.33
76108;BME280;64834;52.516;10.528;2023-04-24T02:11:17;99499.72;;;11.50;79.14
76108;BME280;64834;52.516;10.528;2023-04-24T02:13:42;99502.34;;;11.50;79.05
76108;BME280;64834;52.516;10.528;2023-04-24T02:16:08;99505.69;;;11.46;79.27
76108;BME280;64834;52.516;10.528;2023-04-24T02:18:33;99499.53;;;11.44;79.53
76108;BME280;64834;52.516;10.528;2023-04-24T02:20:58;99503.72;;;11.39;79.65
76108;BME280;64834;52.516;10.528;2023-04-24T02:23:23;99498.47;;;11.39;79.55
76108;BME280;64834;52.516;10.528;2023-04-24T02:25:49;99508.88;;;11.38;79.69
76108;BME280;64834;52.516;10.528;2023-04-24T02:28:14;99507.75;;;11.29;80.26
76108;BME280;64834;52.516;10.528;2023-04-24T02:30:39;99503.94;;;11.20;80.64
76108;BME280;64834;52.516;10.528;2023-04-24T02:33:05;99492.69;;;11.22;80.43
76108;BME280;64834;52.516;10.528;2023-04-24T02:35:30;99498.75;;;11.21;80.44
76108;BME280;64834;52.516;10.528;2023-04-24T02:37:55;99507.09;;;11.10;81.52
76108;BME280;64834;52.516;10.528;2023-04-24T02:40:21;99503.78;;;11.15;80.74
76108;BME280;64834;52.516;10.528;2023-04-24T02:42:46;99503.63;;;11.11;80.81
76108;BME280;64834;52.516;10.528;2023-04-24T02:45:11;99498.09;;;11.01;81.15
76108;BME280;64834;52.516;10.528;2023-04-24T02:47:37;99503.78;;;10.90;82.32
76108;BME280;64834;52.516;10.528;2023-04-24T02:50:03;99501.16;;;10.90;82.06
76108;BME280;64834;52.516;10.528;2023-04-24T02:52:29;99496.59;;;10.84;82.45
76108;BME280;64834;52.516;10.528;2023-04-24T02:54:55;99485.88;;;10.76;82.71
76108;BME280;64834;52.516;10.528;2023-04-24T02:57:20;99493.34;;;10.66;82.93
76108;BME280;64834;52.516;10.528;2023-04-24T02:59:45;99496.34;;;10.52;83.19
76108;BME280;64834;52.516;10.528;2023-04-24T03:02:11;99487.88;;;10.60;83.11
76108;BME280;64834;52.516;10.528;2023-04-24T03:04:36;99500.03;;;10.58;83.71
76108;BME280;64834;52.516;10.528;2023-04-24T03:07:01;99497.13;;;10.50;83.54
76108;BME280;64834;52.516;10.528;2023-04-24T03:09:27;99507.66;;;10.51;83.57
76108;BME280;64834;52.516;10.528;2023-04-24T03:11:52;99504.81;;;10.45;83.80
76108;BME280;64834;52.516;10.528;2023-04-24T03:14:18;99500.06;;;10.35;83.80
76108;BME280;64834;52.516;10.528;2023-04-24T03:16:43;99482.19;;;10.23;84.36
76108;BME280;64834;52.516;10.528;2023-04-24T03:19:08;99496.84;;;10.20;84.46
76108;BME280;64834;52.516;10.528;2023-04-24T03:21:34;99490.34;;;10.31;83.89
76108;BME280;64834;52.516;10.528;2023-04-24T03:24:00;99496.00;;;10.21;84.33
76108;BME280;64834;52.516;10.528;2023-04-24T03:26:26;99498.94;;;10.29;83.92
76108;BME280;64834;52.516;10.528;2023-04-24T03:28:51;99499.13;;;10.33;83.69
76108;BME280;64834;52.516;10.528;2023-04-24T03:31:16;99499.50;;;10.21;83.91
76108;BME280;64834;52.516;10.528;2023-04-24T03:33:42;99502.13;;;10.21;83.51
76108;BME280;64834;52.516;10.528;2023-04-24T03:36:07;99497.31;;;10.10;84.10
76108;BME280;64834;52.516;10.528;2023-04-24T03:38:33;99504.22;;;10.08;84.31
76108;BME280;64834;52.516;10.528;2023-04-24T03:40:58;99499.06;;;10.09;83.91
76108;BME280;64834;52.516;10.528;2023-04-24T03:43:23;99503.06;;;9.99;83.97
76108;BME280;64834;52.516;10.528;2023-04-24T03:45:48;99495.97;;;9.97;84.28
76108;BME280;64834;52.516;10.528;2023-04-24T03:48:14;99493.66;;;9.82;84.88
76108;BME280;64834;52.516;10.528;2023-04-24T03:50:39;99492.63;;;9.79;84.72
76108;BME280;64834;52.516;10.528;2023-04-24T03:53:04;99490.56;;;9.92;84.20
76108;BME280;64834;52.516;10.528;2023-04-24T03:55:30;99487.78;;;9.88;84.48
76108;BME280;64834;52.516;10.528;2023-04-24T03:57:55;99492.00;;;9.84;84.74
76108;BME280;64834;52.516;10.528;2023-04-24T04:00:20;99488.25;;;9.78;84.72
76108;BME280;64834;52.516;10.528;2023-04-24T04:02:46;99488.28;;;9.79;85.06
76108;BME280;64834;52.516;10.528;2023-04-24T04:05:11;99487.22;;;9.74;85.31
76108;BME280;64834;52.516;10.528;2023-04-24T04:07:36;99487.06;;;9.69;85.49
76108;BME280;64834;52.516;10.528;2023-04-24T04:10:02;99484.50;;;9.71;84.50
76108;BME280;64834;52.516;10.528;2023-04-24T04:12:28;99479.50;;;9.55;85.10
76108;BME280;64834;52.516;10.528;2023-04-24T04:14:53;99479.38;;;9.52;86.10
76108;BME280;64834;52.516;10.528;2023-04-24T04:17:19;99484.59;;;9.52;86.35
76108;BME280;64834;52.516;10.528;2023-04-24T04:19:44;99495.59;;;9.65;86.43
76108;BME280;64834;52.516;10.528;2023-04-24T04:22:09;99493.13;;;9.68;85.57
76108;BME280;64834;52.516;10.528;2023-04-24T04:24:35;99488.09;;;9.52;86.29
76108;BME280;64834;52.516;10.528;2023-04-24T04:27:03;99482.44;;;9.62;85.40
76108;BME280;64834;52.516;10.528;2023-04-24T04:29:30;99492.25;;;9.68;84.84
76108;BME280;64834;52.516;10.528;2023-04-24T04:31:56;99490.28;;;9.62;85.63
76108;BME280;64834;52.516;10.528;2023-04-24T04:34:21;99487.81;;;9.67;85.33
76108;BME280;64834;52.516;10.528;2023-04-24T04:36:47;99487.00;;;9.68;85.52
76108;BME280;64834;52.516;10.528;2023-04-24T04:39:13;99487.06;;;9.69;85.29
76108;BME280;64834;52.516;10.528;2023-04-24T04:41:40;99492.25;;;9.68;85.51
76108;BME280;64834;52.516;10.528;2023-04-24T04:44:06;99489.50;;;9.65;85.28
76108;BME280;64834;52.516;10.528;2023-04-24T04:46:34;99490.38;;;9.65;85.28
76108;BME280;64834;52.516;10.528;2023-04-24T04:49:00;99498.50;;;9.73;84.52
76108;BME280;64834;52.516;10.528;2023-04-24T04:51:25;99498.88;;;9.82;84.46
76108;BME280;64834;52.516;10.528;2023-04-24T04:53:51;99497.75;;;9.76;84.37
76108;BME280;64834;52.516;10.528;2023-04-24T04:56:16;99498.59;;;9.75;85.03
76108;BME280;64834;52.516;10.528;2023-04-24T04:58:41;99503.50;;;9.89;83.65
76108;BME280;64834;52.516;10.528;2023-04-24T05:01:07;99509.63;;;9.90;83.17
76108;BME280;64834;52.516;10.528;2023-04-24T05:03:33;99516.13;;;9.99;83.45
76108;BME280;64834;52.516;10.528;2023-04-24T05:05:58;99515.28;;;10.00;82.92
76108;BME280;64834;52.516;10.528;2023-04-24T05:08:23;99515.28;;;10.00;82.82
76108;BME280;64834;52.516;10.528;2023-04-24T05:10:48;99511.22;;;10.09;82.21
76108;BME280;64834;52.516;10.528;2023-04-24T05:13:14;99512.94;;;10.08;81.80
76108;BME280;64834;52.516;10.528;2023-04-24T05:15:40;99513.13;;;10.13;81.67
76108;BME280;64834;52.516;10.528;2023-04-24T05:18:05;99518.47;;;10.16;82.37
76108;BME280;64834;52.516;10.528;2023-04-24T05:20:30;99519.84;;;10.29;81.51
76108;BME280;64834;52.516;10.528;2023-04-24T05:22:55;99532.94;;;10.29;82.03
76108;BME280;64834;52.516;10.528;2023-04-24T05:25:21;99530.03;;;10.43;81.25
76108;BME280;64834;52.516;10.528;2023-04-24T05:27:46;99525.97;;;10.51;80.76
76108;BME280;64834;52.516;10.528;2023-04-24T05:30:12;99526.63;;;10.46;80.83
76108;BME280;64834;52.516;10.528;2023-04-24T05:32:38;99537.75;;;10.64;80.25
76108;BME280;64834;52.516;10.528;2023-04-24T05:35:03;99522.28;;;10.70;79.82
76108;BME280;64834;52.516;10.528;2023-04-24T05:37:28;99526.94;;;10.79;79.51
76108;BME280;64834;52.516;10.528;2023-04-24T05:39:54;99520.94;;;10.82;78.89
76108;BME280;64834;52.516;10.528;2023-04-24T05:42:19;99519.31;;;10.85;79.45
76108;BME280;64834;52.516;10.528;2023-04-24T05:44:45;99516.16;;;10.94;79.20
76108;BME280;64834;52.516;10.528;2023-04-24T05:47:10;99516.19;;;10.95;79.51
76108;BME280;64834;52.516;10.528;2023-04-24T05:49:35;99518.94;;;11.00;79.07
76108;BME280;64834;52.516;10.528;2023-04-24T05:52:01;99512.75;;;10.96;79.68
76108;BME280;64834;52.516;10.528;2023-04-24T05:54:26;99518.22;;;11.04;79.58
76108;BME280;64834;52.516;10.528;2023-04-24T05:56:51;99520.44;;;11.17;78.67
76108;BME280;64834;52.516;10.528;2023-04-24T05:59:17;99515.31;;;11.20;79.35
76108;BME280;64834;52.516;10.528;2023-04-24T06:01:42;99524.25;;;11.27;78.78
76108;BME280;64834;52.516;10.528;2023-04-24T06:04:07;99520.31;;;11.40;78.93
76108;BME280;64834;52.516;10.528;2023-04-24T06:06:33;99516.91;;;11.42;78.96
76108;BME280;64834;52.516;10.528;2023-04-24T06:08:58;99522.56;;;11.54;78.79
76108;BME280;64834;52.516;10.528;2023-04-24T06:11:26;99521.13;;;11.64;78.26
76108;BME280;64834;52.516;10.528;2023-04-24T06:13:52;99523.78;;;11.66;77.88
76108;BME280;64834;52.516;10.528;2023-04-24T06:16:17;99520.69;;;11.77;77.88
76108;BME280;64834;52.516;10.528;2023-04-24T06:18:43;99529.03;;;11.93;78.28
76108;BME280;64834;52.516;10.528;2023-04-24T06:21:08;99533.75;;;12.03;77.81
76108;BME280;64834;52.516;10.528;2023-04-24T06:23:33;99536.41;;;12.04;77.89
76108;BME280;64834;52.516;10.528;2023-04-24T06:25:59;99525.00;;;12.02;77.44
76108;BME280;64834;52.516;10.528;2023-04-24T06:28:26;99533.91;;;12.07;76.93
76108;BME280;64834;52.516;10.528;2023-04-24T06:30:51;99526.09;;;12.10;76.79
76108;BME280;64834;52.516;10.528;2023-04-24T06:33:16;99528.91;;;12.17;76.82
76108;BME280;64834;52.516;10.528;2023-04-24T06:35:42;99524.72;;;12.22;76.40
76108;BME280;64834;52.516;10.528;2023-04-24T06:38:07;99522.53;;;12.37;76.32
76108;BME280;64834;52.516;10.528;2023-04-24T06:40:32;99531.34;;;12.39;75.86
76108;BME280;64834;52.516;10.528;2023-04-24T06:42:58;99530.09;;;12.56;76.07
76108;BME280;64834;52.516;10.528;2023-04-24T06:45:25;99529.19;;;12.56;74.35
76108;BME280;64834;52.516;10.528;2023-04-24T06:47:50;99532.53;;;12.50;73.89
76108;BME280;64834;52.516;10.528;2023-04-24T06:50:16;99528.44;;;12.60;74.85
76108;BME280;64834;52.516;10.528;2023-04-24T06:52:41;99540.09;;;12.69;74.51
76108;BME280;64834;52.516;10.528;2023-04-24T06:55:07;99528.03;;;12.45;73.93
76108;BME280;64834;52.516;10.528;2023-04-24T06:57:33;99533.28;;;12.45;75.24
76108;BME280;64834;52.516;10.528;2023-04-24T06:59:58;99530.50;;;12.40;73.64
76108;BME280;64834;52.516;10.528;2023-04-24T07:02:24;99531.84;;;12.26;74.66
76108;BME280;64834;52.516;10.528;2023-04-24T07:04:50;99529.38;;;12.32;75.08
76108;BME280;64834;52.516;10.528;2023-04-24T07:07:15;99534.75;;;12.36;74.77
76108;BME280;64834;52.516;10.528;2023-04-24T07:09:41;99530.34;;;12.35;74.62
76108;BME280;64834;52.516;10.528;2023-04-24T07:12:10;99520.38;;;12.52;73.83
76108;BME280;64834;52.516;10.528;2023-04-24T07:14:36;99516.78;;;12.80;73.44
76108;BME280;64834;52.516;10.528;2023-04-24T07:17:03;99512.75;;;12.93;72.78
76108;BME280;64834;52.516;10.528;2023-04-24T07:19:28;99515.31;;;13.21;72.70
76108;BME280;64834;52.516;10.528;2023-04-24T07:21:54;99521.47;;;13.23;71.58
76108;BME280;64834;52.516;10.528;2023-04-24T07:24:20;99515.81;;;13.10;71.64
76108;BME280;64834;52.516;10.528;2023-04-24T07:26:45;99518.03;;;12.94;71.47
76108;BME280;64834;52.516;10.528;2023-04-24T07:29:12;99519.56;;;12.86;72.35
76108;BME280;64834;52.516;10.528;2023-04-24T07:31:37;99529.00;;;12.80;73.28
76108;BME280;64834;52.516;10.528;2023-04-24T07:34:02;99540.25;;;12.76;74.77
76108;BME280;64834;52.516;10.528;2023-04-24T07:36:28;99563.31;;;11.99;69.90
76108;BME280;64834;52.516;10.528;2023-04-24T07:38:54;99561.13;;;11.58;69.26
76108;BME280;64834;52.516;10.528;2023-04-24T07:41:19;99572.03;;;11.45;69.40
76108;BME280;64834;52.516;10.528;2023-04-24T07:43:46;99563.50;;;11.25;70.49
76108;BME280;64834;52.516;10.528;2023-04-24T07:46:11;99560.94;;;11.27;71.69
76108;BME280;64834;52.516;10.528;2023-04-24T07:48:37;99574.69;;;11.21;73.20
76108;BME280;64834;52.516;10.528;2023-04-24T07:51:02;99576.94;;;11.11;73.97
76108;BME280;64834;52.516;10.528;2023-04-24T07:53:27;99575.56;;;10.96;75.39
76108;BME280;64834;52.516;10.528;2023-04-24T07:55:54;99578.22;;;10.98;75.05
76108;BME280;64834;52.516;10.528;2023-04-24T07:58:20;99575.78;;;11.02;74.88
76108;BME280;64834;52.516;10.528;2023-04-24T08:00:46;99570.09;;;11.14;75.97
76108;BME280;64834;52.516;10.528;2023-04-24T08:03:11;99574.56;;;11.18;75.85
76108;BME280;64834;52.516;10.528;2023-04-24T08:05:37;99564.38;;;11.26;76.58
76108;BME280;64834;52.516;10.528;2023-04-24T08:08:03;99565.94;;;11.46;77.17
76108;BME280;64834;52.516;10.528;2023-04-24T08:10:28;99571.59;;;11.58;77.88
76108;BME280;64834;52.516;10.528;2023-04-24T08:12:53;99571.19;;;11.46;76.74
76108;BME280;64834;52.516;10.528;2023-04-24T08:15:20;99578.22;;;11.47;76.94
76108;BME280;64834;52.516;10.528;2023-04-24T08:17:45;99588.22;;;11.59;76.46
76108;BME280;64834;52.516;10.528;2023-04-24T08:20:11;99590.22;;;11.68;77.50
76108;BME280;64834;52.516;10.528;2023-04-24T08:22:40;99596.31;;;11.67;76.24
76108;BME280;64834;52.516;10.528;2023-04-24T08:25:06;99600.06;;;11.75;77.30
76108;BME280;64834;52.516;10.528;2023-04-24T08:27:32;99602.66;;;11.73;76.36
76108;BME280;64834;52.516;10.528;2023-04-24T08:29:59;99604.56;;;11.77;77.07
76108;BME280;64834;52.516;10.528;2023-04-24T08:32:25;99605.22;;;11.97;77.06
76108;BME280;64834;52.516;10.528;2023-04-24T08:34:54;99602.59;;;11.97;73.29
76108;BME280;64834;52.516;10.528;2023-04-24T08:37:21;99607.03;;;12.00;69.14
76108;BME280;64834;52.516;10.528;2023-04-24T08:39:47;99606.47;;;12.08;71.81
76108;BME280;64834;52.516;10.528;2023-04-24T08:42:12;99604.13;;;12.45;72.71
76108;BME280;64834;52.516;10.528;2023-04-24T08:44:38;99609.81;;;12.60;71.98
76108;BME280;64834;52.516;10.528;2023-04-24T08:47:04;99602.19;;;12.69;66.35
76108;BME280;64834;52.516;10.528;2023-04-24T08:49:30;99605.66;;;12.68;65.13
76108;BME280;64834;52.516;10.528;2023-04-24T08:51:56;99618.56;;;12.60;62.85
76108;BME280;64834;52.516;10.528;2023-04-24T08:54:21;99611.03;;;12.14;62.77
76108;BME280;64834;52.516;10.528;2023-04-24T08:56:48;99614.47;;;11.86;63.76
76108;BME280;64834;52.516;10.528;2023-04-24T08:59:14;99624.22;;;12.17;63.37
76108;BME280;64834;52.516;10.528;2023-04-24T09:01:40;99619.31;;;12.56;62.66
76108;BME280;64834;52.516;10.528;2023-04-24T09:04:08;99612.03;;;13.38;62.70
76108;BME280;64834;52.516;10.528;2023-04-24T09:06:35;99603.03;;;13.28;61.23
76108;BME280;64834;52.516;10.528;2023-04-24T09:09:01;99597.22;;;13.08;60.68
76108;BME280;64834;52.516;10.528;2023-04-24T09:11:27;99616.69;;;12.85;61.13
76108;BME280;64834;52.516;10.528;2023-04-24T09:13:53;99611.91;;;12.72;61.38
76108;BME280;64834;52.516;10.528;2023-04-24T09:16:20;99615.97;;;12.62;59.11
76108;BME280;64834;52.516;10.528;2023-04-24T09:18:45;99623.09;;;12.64;59.23
76108;BME280;64834;52.516;10.528;2023-04-24T09:21:11;99621.34;;;12.95;60.15
76108;BME280;64834;52.516;10.528;2023-04-24T09:23:36;99610.38;;;13.40;58.80
76108;BME280;64834;52.516;10.528;2023-04-24T09:26:02;99620.41;;;13.23;58.20
76108;BME280;64834;52.516;10.528;2023-04-24T09:28:32;99620.38;;;13.21;58.77
76108;BME280;64834;52.516;10.528;2023-04-24T09:31:07;99625.44;;;13.15;59.25
76108;BME280;64834;52.516;10.528;2023-04-24T09:33:33;99625.13;;;13.05;61.06
76108;BME280;64834;52.516;10.528;2023-04-24T09:35:59;99622.69;;;13.42;60.74
76108;BME280;64834;52.516;10.528;2023-04-24T09:38:33;99622.97;;;12.61;56.78
76108;BME280;64834;52.516;10.528;2023-04-24T09:41:01;99621.06;;;12.56;58.80
76108;BME280;64834;52.516;10.528;2023-04-24T09:43:28;99624.59;;;12.86;60.54
76108;BME280;64834;52.516;10.528;2023-04-24T09:45:56;99618.03;;;13.32;59.07
76108;BME280;64834;52.516;10.528;2023-04-24T09:48:32;99620.69;;;13.02;59.27
76108;BME280;64834;52.516;10.528;2023-04-24T09:50:59;99614.69;;;13.38;61.08
76108;BME280;64834;52.516;10.528;2023-04-24T09:53:27;99604.94;;;13.34;56.78
76108;BME280;64834;52.516;10.528;2023-04-24T09:55:53;99621.03;;;13.79;56.07
76108;BME280;64834;52.516;10.528;2023-04-24T09:58:24;99603.34;;;13.73;55.98
76108;BME280;64834;52.516;10.528;2023-04-24T10:00:53;99606.59;;;13.98;56.26
76108;BME280;64834;52.516;10.528;2023-04-24T10:03:18;99610.59;;;14.56;54.50
76108;BME280;64834;52.516;10.528;2023-04-24T10:05:46;99615.38;;;14.36;52.84
76108;BME280;64834;52.516;10.528;2023-04-24T10:08:12;99613.44;;;14.27;52.96
76108;BME280;64834;52.516;10.528;2023-04-24T10:10:43;99613.44;;;13.91;53.48
76108;BME280;64834;52.516;10.528;2023-04-24T10:13:10;99601.84;;;13.83;55.29
76108;BME280;64834;52.516;10.528;2023-04-24T10:15:36;99606.84;;;13.39;58.36
76108;BME280;64834;52.516;10.528;2023-04-24T10:18:04;99608.28;;;13.61;56.79
76108;BME280;64834;52.516;10.528;2023-04-24T10:20:30;99612.22;;;13.44;56.16
76108;BME280;64834;52.516;10.528;2023-04-24T10:22:56;99615.81;;;13.47;57.46
76108;BME280;64834;52.516;10.528;2023-04-24T10:25:24;99611.59;;;13.53;58.19
76108;BME280;64834;52.516;10.528;2023-04-24T10:27:51;99624.59;;;13.83;57.04
76108;BME280;64834;52.516;10.528;2023-04-24T10:30:18;99618.44;;;13.47;60.03
76108;BME280;64834;52.516;10.528;2023-04-24T10:32:44;99617.78;;;13.56;59.64
76108;BME280;64834;52.516;10.528;2023-04-24T10:35:13;99625.69;;;13.25;57.23
76108;BME280;64834;52.516;10.528;2023-04-24T10:37:42;99609.75;;;13.50;57.82
76108;BME280;64834;52.516;10.528;2023-04-24T10:40:08;99613.75;;;14.03;60.02
76108;BME280;64834;52.516;10.528;2023-04-24T10:42:35;99620.75;;;14.41;55.97
76108;BME280;64834;52.516;10.528;2023-04-24T10:45:05;99619.88;;;14.78;55.56
76108;BME280;64834;52.516;10.528;2023-04-24T10:47:40;99626.84;;;14.76;53.62
76108;BME280;64834;52.516;10.528;2023-04-24T10:50:15;99625.47;;;14.95;53.68
76108;BME280;64834;52.516;10.528;2023-04-24T10:52:44;99625.41;;;14.51;52.10
76108;BME280;64834;52.516;10.528;2023-04-24T10:55:12;99630.75;;;14.18;52.12
76108;BME280;64834;52.516;10.528;2023-04-24T10:57:38;99626.97;;;14.07;51.21
76108;BME280;64834;52.516;10.528;2023-04-24T11:00:19;99625.16;;;14.04;51.84
76108;BME280;64834;52.516;10.528;2023-04-24T11:02:46;99631.72;;;14.21;53.18
76108;BME280;64834;52.516;10.528;2023-04-24T11:05:18;99634.63;;;13.97;53.27
76108;BME280;64834;52.516;10.528;2023-04-24T11:08:16;99632.31;;;14.10;53.28
76108;BME280;64834;52.516;10.528;2023-04-24T11:10:47;99642.84;;;14.10;52.17
76108;BME280;64834;52.516;10.528;2023-04-24T11:13:22;99634.31;;;13.84;51.46
76108;BME280;64834;52.516;10.528;2023-04-24T11:19:07;99628.59;;;13.67;52.66
76108;BME280;64834;52.516;10.528;2023-04-24T11:21:43;99643.88;;;13.82;52.08
76108;BME280;64834;52.516;10.528;2023-04-24T11:29:45;99638.94;;;13.61;51.88
76108;BME280;64834;52.516;10.528;2023-04-24T11:32:18;99637.38;;;13.67;52.36
76108;BME280;64834;52.516;10.528;2023-04-24T11:34:52;99636.72;;;13.76;52.33
76108;BME280;64834;52.516;10.528;2023-04-24T11:37:17;99632.88;;;13.96;53.04
76108;BME280;64834;52.516;10.528;2023-04-24T11:39:43;99634.44;;;14.26;52.30
76108;BME280;64834;52.516;10.528;2023-04-24T11:42:09;99636.19;;;14.25;51.46
76108;BME280;64834;52.516;10.528;2023-04-24T11:44:35;99632.91;;;14.34;51.39
76108;BME280;64834;52.516;10.528;2023-04-24T11:47:05;99631.53;;;14.50;49.47
76108;BME280;64834;52.516;10.528;2023-04-24T11:49:30;99632.00;;;14.34;50.39
76108;BME280;64834;52.516;10.528;2023-04-24T11:51:56;99632.63;;;14.23;51.40
76108;BME280;64834;52.516;10.528;2023-04-24T11:54:21;99640.59;;;14.26;51.05
76108;BME280;64834;52.516;10.528;2023-04-24T11:56:47;99632.94;;;13.99;52.14
76108;BME280;64834;52.516;10.528;2023-04-24T11:59:13;99638.75;;;14.22;51.73
76108;BME280;64834;52.516;10.528;2023-04-24T12:01:45;99633.84;;;14.38;50.86
76108;BME280;64834;52.516;10.528;2023-04-24T12:04:11;99630.84;;;14.21;50.65
76108;BME280;64834;52.516;10.528;2023-04-24T12:06:37;99648.53;;;13.92;51.24
76108;BME280;64834;52.516;10.528;2023-04-24T12:09:02;99635.06;;;13.80;51.01
76108;BME280;64834;52.516;10.528;2023-04-24T12:11:27;99634.69;;;13.64;53.08
76108;BME280;64834;52.516;10.528;2023-04-24T12:13:53;99646.66;;;13.55;53.00
76108;BME280;64834;52.516;10.528;2023-04-24T12:16:18;99652.16;;;13.31;56.13
76108;BME280;64834;52.516;10.528;2023-04-24T12:18:45;99658.13;;;12.95;57.18
76108;BME280;64834;52.516;10.528;2023-04-24T12:21:21;99662.56;;;12.69;59.19
76108;BME280;64834;52.516;10.528;2023-04-24T12:23:48;99664.22;;;12.65;59.21
76108;BME280;64834;52.516;10.528;2023-04-24T12:26:18;99662.41;;;12.93;59.67
76108;BME280;64834;52.516;10.528;2023-04-24T12:28:46;99661.22;;;13.12;58.29
76108;BME280;64834;52.516;10.528;2023-04-24T12:31:12;99660.06;;;13.32;57.56
76108;BME280;64834;52.516;10.528;2023-04-24T12:33:37;99648.66;;;13.32;56.97
76108;BME280;64834;52.516;10.528;2023-04-24T12:36:04;99653.34;;;13.42;56.30
76108;BME280;64834;52.516;10.528;2023-04-24T12:38:30;99651.25;;;13.30;57.30
76108;BME280;64834;52.516;10.528;2023-04-24T12:41:07;99655.91;;;13.10;57.76
76108;BME280;64834;52.516;10.528;2023-04-24T12:43:33;99659.81;;;12.94;58.37
76108;BME280;64834;52.516;10.528;2023-04-24T12:45:58;99654.28;;;12.84;57.77
76108;BME280;64834;52.516;10.528;2023-04-24T12:48:25;99664.81;;;12.85;59.48
76108;BME280;64834;52.516;10.528;2023-04-24T12:50:50;99670.13;;;12.58;63.12
76108;BME280;64834;52.516;10.528;2023-04-24T12:53:15;99675.13;;;11.97;67.28
76108;BME280;64834;52.516;10.528;2023-04-24T12:55:41;99671.28;;;11.87;68.00